Time;durP1;ratioP1;P1;durP2;ratioP2;P2;SDS_P1;SDS_P2;PMS_P1;PMS_P2;Temp;Humidity;BMP_temperature;BMP_pressure;BME280_temperature;BME280_humidity;BME280_pressure;Samples;Min_cycle;Max_cycle;Signal;HPM_P1;HPM_P2
2022/04/28 00:01:06;;;;;;;11.85;2.70;;;6.50;99.90;;;;;;4973713;28;20046;-53
2022/04/28 00:03:32;;;;;;;5.95;2.38;;;6.40;99.90;;;;;;4974168;28;20465;-51
2022/04/28 00:05:58;;;;;;;6.95;2.13;;;6.40;99.90;;;;;;4973488;28;20433;-53
2022/04/28 00:08:24;;;;;;;7.70;3.25;;;6.40;99.90;;;;;;4973769;28;20046;-52
2022/04/28 00:10:49;;;;;;;7.82;3.03;;;6.40;99.90;;;;;;4973201;28;20050;-52
2022/04/28 00:13:15;;;;;;;6.00;2.08;;;6.30;99.90;;;;;;4973707;28;20046;-53
2022/04/28 00:15:42;;;;;;;7.72;2.92;;;6.30;99.90;;;;;;4956147;28;20039;-52
2022/04/28 00:18:08;;;;;;;8.30;3.10;;;6.30;99.90;;;;;;4973343;28;20506;-52
2022/04/28 00:20:33;;;;;;;6.18;2.30;;;6.30;99.90;;;;;;4973152;28;20051;-48
2022/04/28 00:22:59;;;;;;;8.65;2.35;;;6.30;99.90;;;;;;4973690;28;20057;-52
2022/04/28 00:25:25;;;;;;;6.85;2.92;;;6.30;99.90;;;;;;4973176;28;20137;-52
2022/04/28 00:27:51;;;;;;;6.10;3.00;;;6.20;99.90;;;;;;4973485;28;20187;-53
2022/04/28 00:30:17;;;;;;;8.77;2.65;;;6.20;99.90;;;;;;4973065;28;20050;-53
2022/04/28 00:32:43;;;;;;;7.57;3.03;;;6.20;99.90;;;;;;4955869;28;20047;-53
2022/04/28 00:35:09;;;;;;;6.93;2.83;;;6.20;99.90;;;;;;4973015;28;20380;-49
2022/04/28 00:37:34;;;;;;;7.85;3.03;;;6.10;99.90;;;;;;4972959;28;20492;-51
2022/04/28 00:40:01;;;;;;;9.45;3.00;;;6.10;99.90;;;;;;4972679;28;20524;-50
2022/04/28 00:42:27;;;;;;;7.45;2.72;;;6.10;99.90;;;;;;4972984;28;20038;-52
2022/04/28 00:44:54;;;;;;;8.55;2.65;;;6.00;99.90;;;;;;4972287;28;20081;-52
2022/04/28 00:47:20;;;;;;;8.13;4.32;;;6.00;99.90;;;;;;4973006;28;20485;-47
2022/04/28 00:52:37;;;;;;;6.80;2.72;;;6.00;99.90;;;;;;4949986;28;20054;-51
2022/04/28 00:55:03;;;;;;;11.77;3.17;;;5.90;99.90;;;;;;4955089;28;20058;-51
2022/04/28 00:57:31;;;;;;;6.38;2.53;;;5.90;99.90;;;;;;4972235;28;20050;-52
2022/04/28 00:59:57;;;;;;;7.97;3.53;;;5.90;99.90;;;;;;4954868;28;20050;-52
2022/04/28 01:02:24;;;;;;;8.00;2.83;;;5.80;99.90;;;;;;4972420;28;20123;-52
2022/04/28 01:04:49;;;;;;;9.30;3.10;;;5.80;99.90;;;;;;4954976;28;20053;-50
2022/04/28 01:07:16;;;;;;;8.93;2.97;;;5.70;99.90;;;;;;4972520;28;20113;-50
2022/04/28 01:09:42;;;;;;;9.23;2.97;;;5.70;99.90;;;;;;4972087;28;20083;-51
2022/04/28 01:12:14;;;;;;;7.80;2.80;;;5.70;99.90;;;;;;4972720;28;20097;-51
2022/04/28 01:14:44;;;;;;;5.72;2.40;;;5.70;99.90;;;;;;4972537;28;20042;-50
2022/04/28 01:17:10;;;;;;;8.27;3.08;;;5.60;99.90;;;;;;4972320;28;20053;-50
2022/04/28 01:19:36;;;;;;;8.18;3.40;;;5.60;99.90;;;;;;4972062;28;20038;-45
2022/04/28 01:22:03;;;;;;;9.43;3.20;;;5.60;99.90;;;;;;4972161;28;20090;-50
2022/04/28 01:24:28;;;;;;;8.25;3.22;;;5.50;99.90;;;;;;4972037;28;20430;-50
2022/04/28 01:26:56;;;;;;;8.45;3.53;;;5.50;99.90;;;;;;4972191;28;20046;-47
2022/04/28 01:29:22;;;;;;;8.07;3.20;;;5.50;99.90;;;;;;4951207;28;20139;-51
2022/04/28 01:31:47;;;;;;;7.43;3.10;;;5.50;99.90;;;;;;4966250;28;20459;-48
2022/04/28 01:34:13;;;;;;;7.47;3.63;;;5.40;99.90;;;;;;4971725;28;20147;-50
2022/04/28 01:36:39;;;;;;;10.82;4.53;;;5.40;99.90;;;;;;4972042;28;20069;-49
2022/04/28 01:39:09;;;;;;;9.70;3.20;;;5.40;99.90;;;;;;4954347;28;20500;-45
2022/04/28 01:41:34;;;;;;;8.98;2.92;;;5.40;99.90;;;;;;4971959;28;20039;-55
2022/04/28 01:44:01;;;;;;;14.25;3.20;;;5.40;99.90;;;;;;4971866;28;20070;-52
2022/04/28 01:46:28;;;;;;;9.65;3.08;;;5.40;99.90;;;;;;4971915;28;20043;-52
2022/04/28 01:48:54;;;;;;;6.00;2.95;;;5.30;99.90;;;;;;4954329;28;20038;-55
2022/04/28 01:56:48;;;;;;;10.13;3.30;;;5.20;99.90;;;;;;4971495;28;20184;-50
2022/04/28 01:59:14;;;;;;;9.05;3.85;;;5.20;99.90;;;;;;4971244;28;20043;-51
2022/04/28 02:01:40;;;;;;;6.15;3.17;;;5.20;99.90;;;;;;4954361;28;20453;-49
2022/04/28 02:04:05;;;;;;;8.63;3.47;;;5.20;99.90;;;;;;4971314;28;20034;-52
2022/04/28 02:06:31;;;;;;;7.00;3.08;;;5.20;99.90;;;;;;4971143;28;20034;-51
2022/04/28 02:08:57;;;;;;;10.73;3.53;;;5.20;99.90;;;;;;4970752;28;20386;-47
2022/04/28 02:11:23;;;;;;;9.05;3.65;;;5.10;99.90;;;;;;4970932;28;20134;-50
2022/04/28 02:13:49;;;;;;;10.38;4.13;;;5.10;99.90;;;;;;4971350;28;20046;-51
2022/04/28 02:16:14;;;;;;;8.48;4.03;;;5.00;99.90;;;;;;4971281;28;20078;-45
2022/04/28 02:18:40;;;;;;;13.27;4.28;;;5.00;99.90;;;;;;4971287;28;20122;-51
2022/04/28 02:21:05;;;;;;;8.00;4.10;;;5.00;99.90;;;;;;4971406;28;20046;-54
2022/04/28 02:23:31;;;;;;;8.10;3.83;;;5.00;99.90;;;;;;4971315;28;20047;-49
2022/04/28 02:25:57;;;;;;;8.05;3.97;;;5.00;99.90;;;;;;4953555;28;20453;-50
2022/04/28 02:28:23;;;;;;;10.60;4.65;;;5.00;99.90;;;;;;4971340;28;20099;-52
2022/04/28 02:30:48;;;;;;;11.10;5.68;;;5.00;99.90;;;;;;4970828;28;20086;-52
2022/04/28 02:33:14;;;;;;;8.77;4.85;;;5.10;99.90;;;;;;4971468;28;20042;-50
2022/04/28 02:35:40;;;;;;;15.55;5.40;;;5.10;99.90;;;;;;4970940;28;20054;-48
2022/04/28 02:38:08;;;;;;;10.88;5.05;;;5.20;99.90;;;;;;4971235;28;20097;-51
2022/04/28 02:40:34;;;;;;;9.70;4.00;;;5.20;99.90;;;;;;4970817;28;20065;-51
2022/04/28 02:43:00;;;;;;;10.15;4.30;;;5.30;99.90;;;;;;4971414;28;20480;-49
2022/04/28 02:45:26;;;;;;;8.82;4.65;;;5.30;99.90;;;;;;4971317;28;20448;-50
2022/04/28 02:47:52;;;;;;;7.35;4.30;;;5.40;99.90;;;;;;4954163;28;20055;-50
2022/04/28 02:50:21;;;;;;;12.10;4.82;;;5.40;99.90;;;;;;4971212;28;20062;-48
2022/04/28 02:52:49;;;;;;;8.60;4.30;;;5.50;99.90;;;;;;4953596;28;20055;-44
2022/04/28 02:55:14;;;;;;;8.75;4.53;;;5.50;99.90;;;;;;4971172;28;20571;-51
2022/04/28 02:57:41;;;;;;;9.45;4.72;;;5.50;99.90;;;;;;4971006;28;20126;-49
2022/04/28 03:00:07;;;;;;;8.32;4.50;;;5.50;99.90;;;;;;4953234;28;20050;-51
2022/04/28 03:02:33;;;;;;;10.45;3.78;;;5.60;99.90;;;;;;4971132;28;20054;-52
2022/04/28 03:05:01;;;;;;;7.75;3.22;;;5.60;99.90;;;;;;4971119;28;20038;-51
2022/04/28 03:12:57;;;;;;;10.55;4.28;;;5.70;99.90;;;;;;4970744;28;20047;-51
2022/04/28 03:15:23;;;;;;;9.43;3.55;;;5.80;99.90;;;;;;4970443;28;20039;-50
2022/04/28 03:17:50;;;;;;;5.70;3.00;;;5.80;99.90;;;;;;4953722;28;20133;-52
2022/04/28 03:20:16;;;;;;;9.63;3.05;;;5.80;99.90;;;;;;4970816;28;20082;-51
2022/04/28 03:22:43;;;;;;;12.20;3.85;;;5.90;99.90;;;;;;4974568;28;20106;-50
2022/04/28 03:25:09;;;;;;;7.90;3.25;;;6.00;99.90;;;;;;4974172;28;20050;-51
2022/04/28 03:27:36;;;;;;;12.07;3.22;;;6.00;99.90;;;;;;4974392;28;20125;-47
2022/04/28 03:30:03;;;;;;;9.05;3.33;;;6.10;99.90;;;;;;4973715;28;20071;-51
2022/04/28 03:32:28;;;;;;;6.90;3.08;;;6.10;99.90;;;;;;4974280;28;20504;-45
2022/04/28 03:34:54;;;;;;;8.45;2.90;;;6.20;99.90;;;;;;4974193;28;20050;-52
2022/04/28 03:37:20;;;;;;;7.57;3.10;;;6.20;99.90;;;;;;4974305;28;20084;-52
2022/04/28 03:39:45;;;;;;;10.05;3.42;;;6.30;99.90;;;;;;4973760;28;20042;-49
2022/04/28 03:42:11;;;;;;;8.75;3.05;;;6.30;99.90;;;;;;4974290;28;20042;-48
2022/04/28 03:44:37;;;;;;;8.02;2.60;;;6.30;99.90;;;;;;4973713;28;20349;-52
2022/04/28 03:47:03;;;;;;;7.95;3.85;;;6.40;99.90;;;;;;4957027;28;20047;-51
2022/04/28 03:49:29;;;;;;;9.48;2.90;;;6.40;99.90;;;;;;4974156;28;20042;-51
2022/04/28 03:51:54;;;;;;;7.22;3.03;;;6.40;99.90;;;;;;4974082;28;20134;-51
2022/04/28 03:54:21;;;;;;;7.65;2.60;;;6.50;99.90;;;;;;4956186;28;20133;-50
2022/04/28 03:56:47;;;;;;;14.00;3.25;;;6.50;99.90;;;;;;4973629;28;20125;-51
2022/04/28 03:59:13;;;;;;;4.05;2.15;;;6.50;99.90;;;;;;4973435;28;20042;-48
2022/04/28 04:01:39;;;;;;;5.68;2.70;;;6.60;99.90;;;;;;4973672;28;20062;-52
2022/04/28 04:04:05;;;;;;;9.80;2.53;;;6.60;99.90;;;;;;4973864;28;20085;-51
2022/04/28 04:06:31;;;;;;;9.82;3.00;;;6.60;99.90;;;;;;4973370;28;20042;-49
2022/04/28 04:08:57;;;;;;;5.97;2.47;;;6.60;99.90;;;;;;4956325;28;20046;-50
2022/04/28 04:11:23;;;;;;;7.95;2.70;;;6.60;99.90;;;;;;4973624;28;20110;-54
2022/04/28 04:13:49;;;;;;;6.80;2.95;;;6.70;99.90;;;;;;4973453;28;20493;-50
2022/04/28 04:16:15;;;;;;;7.72;3.15;;;6.70;99.90;;;;;;4955941;28;20147;-51
2022/04/28 04:18:40;;;;;;;8.18;2.63;;;6.60;99.90;;;;;;4973472;28;20077;-49
2022/04/28 04:21:06;;;;;;;9.70;2.42;;;6.70;99.90;;;;;;4973481;28;20484;-50
2022/04/28 04:23:32;;;;;;;7.70;3.28;;;6.70;99.90;;;;;;4973443;28;20539;-50
2022/04/28 04:25:58;;;;;;;12.10;3.25;;;6.70;99.90;;;;;;4972986;28;20503;-51
2022/04/28 04:28:24;;;;;;;6.47;2.63;;;6.70;99.90;;;;;;4973290;28;20067;-52
2022/04/28 04:33:35;;;;;;;7.47;3.25;;;6.80;99.90;;;;;;4972213;28;20671;-50
2022/04/28 04:36:01;;;;;;;6.88;2.97;;;6.80;99.90;;;;;;4972922;28;20092;-47
2022/04/28 04:38:26;;;;;;;5.00;2.45;;;6.80;99.90;;;;;;4973380;28;20070;-51
2022/04/28 04:40:52;;;;;;;5.03;2.30;;;6.80;99.90;;;;;;4972949;28;20156;-52
2022/04/28 04:43:18;;;;;;;8.45;2.97;;;6.80;99.90;;;;;;4956044;28;20042;-52
2022/04/28 04:45:44;;;;;;;7.03;3.08;;;6.90;99.90;;;;;;4973120;28;20081;-50
2022/04/28 04:48:10;;;;;;;9.45;2.50;;;6.90;99.90;;;;;;4973248;28;20077;-50
2022/04/28 04:50:37;;;;;;;8.13;3.13;;;6.90;99.90;;;;;;4955737;28;20112;-51
2022/04/28 04:53:04;;;;;;;6.45;2.80;;;7.00;99.90;;;;;;4973219;28;20061;-50
2022/04/28 04:55:31;;;;;;;9.73;3.05;;;7.00;99.90;;;;;;4972777;28;20468;-50
2022/04/28 04:57:57;;;;;;;5.45;2.13;;;7.10;99.90;;;;;;4972761;28;20047;-48
2022/04/28 05:00:23;;;;;;;8.13;2.50;;;7.10;99.90;;;;;;4972396;28;20039;-52
2022/04/28 05:02:49;;;;;;;7.25;3.25;;;7.10;99.90;;;;;;4955529;28;20035;-52
2022/04/28 05:05:15;;;;;;;8.75;2.47;;;7.10;99.90;;;;;;4972468;28;20480;-51
2022/04/28 05:07:42;;;;;;;6.32;2.55;;;7.20;99.90;;;;;;4972951;28;20507;-46
2022/04/28 05:10:08;;;;;;;7.45;3.30;;;7.20;99.90;;;;;;4972309;28;20039;-50
2022/04/28 05:12:33;;;;;;;6.50;3.30;;;7.30;99.90;;;;;;4972521;28;20053;-50
2022/04/28 05:14:59;;;;;;;7.68;3.22;;;7.30;99.90;;;;;;4972332;28;20051;-51
2022/04/28 05:17:25;;;;;;;7.00;2.28;;;7.40;99.90;;;;;;4972561;28;20091;-51
2022/04/28 05:19:50;;;;;;;7.00;2.75;;;7.40;99.90;;;;;;4954843;28;20092;-52
2022/04/28 05:22:16;;;;;;;5.82;2.22;;;7.40;99.90;;;;;;4972428;28;20053;-55
2022/04/28 05:24:42;;;;;;;5.32;2.30;;;7.50;99.90;;;;;;4971996;28;20047;-51
2022/04/28 05:27:08;;;;;;;7.05;2.63;;;7.50;99.90;;;;;;4954780;28;20130;-50
2022/04/28 05:29:33;;;;;;;5.63;2.50;;;7.60;99.90;;;;;;4954349;28;20126;-51
2022/04/28 05:31:59;;;;;;;10.35;2.90;;;7.70;99.90;;;;;;4954967;28;20051;-52
2022/04/28 05:34:24;;;;;;;7.63;2.58;;;7.70;99.90;;;;;;4972134;28;20042;-49
2022/04/28 05:36:50;;;;;;;8.27;2.40;;;7.70;99.90;;;;;;4972342;28;20093;-53
2022/04/28 05:39:17;;;;;;;7.38;2.30;;;7.80;99.90;;;;;;4971970;28;20120;-48
2022/04/28 05:41:43;;;;;;;5.50;2.25;;;7.90;99.90;;;;;;4972593;28;20074;-52
2022/04/28 05:46:53;;;;;;;7.45;2.03;;;8.00;99.90;;;;;;4972132;28;20081;-52
2022/04/28 05:49:18;;;;;;;7.68;2.28;;;8.10;99.90;;;;;;4955010;28;20043;-53
2022/04/28 05:51:44;;;;;;;9.63;2.30;;;8.10;99.90;;;;;;4972131;28;20423;-53
2022/04/28 05:54:10;;;;;;;9.95;2.38;;;8.20;99.90;;;;;;4971886;28;20097;-53
2022/04/28 05:56:36;;;;;;;5.10;2.67;;;8.20;99.90;;;;;;4972034;28;20081;-53
2022/04/28 05:59:02;;;;;;;5.70;2.70;;;8.20;99.90;;;;;;4971621;28;20046;-45
2022/04/28 06:01:29;;;;;;;5.90;2.42;;;8.30;99.90;;;;;;4971712;28;20472;-53
2022/04/28 06:03:54;;;;;;;8.18;2.58;;;8.30;99.90;;;;;;4971645;28;20031;-52
2022/04/28 06:06:20;;;;;;;6.07;2.60;;;8.40;99.90;;;;;;4971591;28;20041;-53
2022/04/28 06:08:45;;;;;;;6.97;2.67;;;8.40;99.90;;;;;;4971768;28;20030;-49
2022/04/28 06:11:11;;;;;;;5.25;2.55;;;8.40;99.90;;;;;;4971308;28;20506;-53
2022/04/28 06:13:37;;;;;;;6.03;2.20;;;8.50;99.90;;;;;;4971822;28;20093;-52
2022/04/28 06:16:03;;;;;;;9.45;3.15;;;8.60;99.90;;;;;;4971047;28;20050;-53
2022/04/28 06:18:29;;;;;;;8.27;3.30;;;8.60;99.90;;;;;;4971730;28;20046;-53
2022/04/28 06:20:54;;;;;;;7.88;3.40;;;8.70;99.90;;;;;;4971456;28;20043;-51
2022/04/28 06:23:20;;;;;;;8.18;2.42;;;8.70;99.90;;;;;;4954163;28;20043;-51
2022/04/28 06:25:47;;;;;;;4.40;1.95;;;8.70;99.90;;;;;;4971352;28;20047;-50
2022/04/28 06:28:15;;;;;;;5.38;2.00;;;8.80;99.90;;;;;;4971571;28;20089;-53
2022/04/28 06:30:41;;;;;;;5.97;2.40;;;8.80;99.90;;;;;;4953941;28;20058;-52
2022/04/28 06:33:10;;;;;;;9.10;2.40;;;8.90;99.70;;;;;;4971856;28;20053;-53
2022/04/28 06:35:35;;;;;;;7.53;2.08;;;9.00;99.00;;;;;;4971568;28;20523;-50
2022/04/28 06:38:01;;;;;;;5.72;1.92;;;9.10;98.20;;;;;;4971612;28;20579;-53
2022/04/28 06:40:27;;;;;;;6.50;2.60;;;9.10;97.70;;;;;;4970884;28;20047;-48
2022/04/28 06:42:53;;;;;;;6.28;2.78;;;9.20;98.10;;;;;;4971688;28;20468;-53
2022/04/28 06:45:18;;;;;;;8.05;3.03;;;9.20;98.70;;;;;;4970995;28;20038;-52
2022/04/28 06:47:44;;;;;;;6.68;2.90;;;9.30;98.90;;;;;;4971520;28;20515;-51
2022/04/28 06:50:11;;;;;;;9.93;3.03;;;9.30;98.90;;;;;;4965198;28;20392;-47
2022/04/28 06:52:37;;;;;;;8.45;3.53;;;9.30;98.80;;;;;;4963801;28;20047;-51
2022/04/28 06:55:08;;;;;;;8.27;3.28;;;9.30;99.00;;;;;;4971392;28;20045;-52
2022/04/28 06:57:35;;;;;;;4.65;2.78;;;9.30;99.10;;;;;;4957599;28;20090;-48
2022/04/28 07:00:02;;;;;;;7.35;2.88;;;9.30;98.90;;;;;;4974835;28;20582;-50
2022/04/28 07:02:28;;;;;;;11.75;2.70;;;9.40;98.60;;;;;;4948557;28;20152;-52
2022/04/28 07:04:54;;;;;;;9.77;2.95;;;9.40;98.40;;;;;;4974748;28;20138;-50
2022/04/28 07:07:19;;;;;;;7.88;2.97;;;9.50;98.30;;;;;;4957759;28;20034;-49
2022/04/28 07:09:45;;;;;;;8.50;2.92;;;9.50;97.90;;;;;;4957125;28;20051;-52
2022/04/28 07:12:12;;;;;;;7.63;2.50;;;9.50;98.00;;;;;;4974972;28;20043;-51
2022/04/28 07:14:37;;;;;;;5.30;2.58;;;9.50;97.90;;;;;;4974475;28;20082;-50
2022/04/28 07:17:03;;;;;;;8.65;3.10;;;9.50;97.90;;;;;;4941409;28;20129;-53
2022/04/28 07:19:29;;;;;;;7.22;3.13;;;9.60;97.80;;;;;;4974642;28;20047;-51
2022/04/28 07:21:55;;;;;;;5.00;2.50;;;9.60;97.60;;;;;;4974577;28;20455;-51
2022/04/28 07:24:21;;;;;;;6.30;3.05;;;9.60;97.40;;;;;;4974284;28;20042;-53
2022/04/28 07:26:46;;;;;;;7.15;2.30;;;9.70;97.50;;;;;;4974438;28;20035;-52
2022/04/28 07:29:12;;;;;;;8.07;2.88;;;9.70;97.50;;;;;;4974107;28;20041;-49
2022/04/28 07:31:38;;;;;;;5.60;2.67;;;9.70;97.30;;;;;;4974416;28;20078;-53
2022/04/28 07:34:03;;;;;;;5.63;2.88;;;9.80;97.40;;;;;;4974095;28;20125;-51
2022/04/28 07:36:30;;;;;;;6.25;2.72;;;9.80;97.60;;;;;;4974163;28;20429;-51
2022/04/28 07:38:55;;;;;;;7.15;2.50;;;9.90;97.10;;;;;;4974228;28;20071;-50
2022/04/28 07:41:21;;;;;;;6.53;2.47;;;9.90;96.10;;;;;;4974667;28;20109;-53
2022/04/28 07:43:47;;;;;;;6.53;2.40;;;10.00;95.90;;;;;;4974172;28;20101;-52
2022/04/28 07:46:12;;;;;;;6.55;2.30;;;10.00;95.60;;;;;;4973798;28;20046;-50
2022/04/28 07:48:38;;;;;;;8.23;2.90;;;10.00;95.20;;;;;;4973958;28;20094;-51
2022/04/28 07:51:04;;;;;;;9.13;2.78;;;10.10;95.10;;;;;;4973638;28;20043;-53
2022/04/28 07:53:31;;;;;;;6.13;2.40;;;10.20;94.90;;;;;;4974205;28;20046;-53
2022/04/28 07:58:52;;;;;;;10.27;2.60;;;10.30;94.80;;;;;;4943949;28;20065;-53
2022/04/28 08:01:18;;;;;;;6.78;2.50;;;10.30;95.00;;;;;;4973386;28;20441;-48
2022/04/28 08:03:43;;;;;;;10.82;3.40;;;10.40;95.00;;;;;;4973879;28;20043;-50
2022/04/28 08:06:13;;;;;;;6.32;2.38;;;10.40;95.00;;;;;;4973501;28;20035;-51
2022/04/28 08:08:40;;;;;;;10.07;2.85;;;10.50;95.00;;;;;;4973706;28;20047;-53
2022/04/28 08:11:05;;;;;;;6.20;2.30;;;10.50;95.00;;;;;;4956062;28;20053;-52
2022/04/28 08:13:31;;;;;;;8.27;2.33;;;10.50;95.10;;;;;;4973593;28;20083;-52
2022/04/28 08:15:57;;;;;;;8.25;2.78;;;10.60;95.30;;;;;;4973182;28;20042;-50
2022/04/28 08:18:24;;;;;;;8.60;2.95;;;10.70;95.30;;;;;;4973555;28;20384;-51
2022/04/28 08:20:50;;;;;;;6.97;3.00;;;10.80;95.20;;;;;;4956132;28;20568;-52
2022/04/28 08:23:16;;;;;;;7.13;2.47;;;10.90;95.10;;;;;;4973367;28;20109;-51
2022/04/28 08:25:41;;;;;;;6.93;2.47;;;11.00;94.90;;;;;;4973319;28;20102;-52
2022/04/28 08:28:07;;;;;;;8.23;2.20;;;11.10;95.20;;;;;;4973480;28;20189;-53
2022/04/28 08:30:33;;;;;;;9.02;2.60;;;11.30;95.10;;;;;;4939331;28;20480;-49
2022/04/28 08:33:03;;;;;;;6.80;2.22;;;11.50;94.50;;;;;;4973343;28;20054;-53
2022/04/28 08:35:31;;;;;;;7.43;2.85;;;11.60;94.30;;;;;;4972739;28;20037;-52
2022/04/28 08:37:57;;;;;;;6.05;2.63;;;11.70;93.90;;;;;;4955625;28;20105;-53
2022/04/28 08:40:23;;;;;;;8.68;2.15;;;11.90;93.60;;;;;;4972935;28;20073;-53
2022/04/28 08:42:49;;;;;;;5.55;2.00;;;11.90;92.90;;;;;;4973237;28;20043;-52
2022/04/28 08:45:25;;;;;;;3.65;1.85;;;12.00;92.60;;;;;;4972925;28;20039;-53
2022/04/28 08:47:53;;;;;;;9.70;2.92;;;12.00;92.20;;;;;;4973118;28;20039;-52
2022/04/28 08:50:21;;;;;;;11.75;1.98;;;12.00;92.50;;;;;;4972865;28;20050;-50
2022/04/28 08:52:48;;;;;;;7.57;2.33;;;12.00;92.60;;;;;;4973085;28;20042;-53
2022/04/28 08:55:15;;;;;;;5.28;1.98;;;11.90;92.40;;;;;;4972858;28;20039;-52
2022/04/28 08:57:40;;;;;;;7.57;2.25;;;11.90;92.20;;;;;;4972778;28;20047;-53
2022/04/28 09:00:06;;;;;;;9.85;2.45;;;11.80;92.40;;;;;;4955194;28;20039;-48
2022/04/28 09:02:33;;;;;;;7.43;2.13;;;11.70;92.40;;;;;;4972805;28;20113;-52
2022/04/28 09:05:05;;;;;;;5.88;2.17;;;11.70;92.80;;;;;;4972742;28;20043;-52
2022/04/28 09:07:34;;;;;;;6.25;2.85;;;11.70;92.80;;;;;;4972521;28;20078;-53
2022/04/28 09:10:00;;;;;;;6.72;2.30;;;11.70;93.10;;;;;;4972477;28;20500;-53
2022/04/28 09:12:26;;;;;;;7.28;1.70;;;11.70;92.80;;;;;;4972520;28;20046;-53
2022/04/28 09:14:55;;;;;;;5.38;1.80;;;11.80;93.00;;;;;;4971954;28;20054;-51
2022/04/28 09:17:21;;;;;;;6.03;2.20;;;11.80;92.70;;;;;;4972279;28;20058;-53
2022/04/28 09:19:47;;;;;;;8.77;2.53;;;11.90;92.50;;;;;;4971682;28;20057;-52
2022/04/28 09:22:13;;;;;;;4.15;2.08;;;11.80;92.40;;;;;;4972378;28;20038;-53
2022/04/28 09:24:44;;;;;;;6.70;2.28;;;11.80;92.10;;;;;;4972116;28;20074;-53
2022/04/28 09:27:11;;;;;;;4.65;1.90;;;11.80;92.30;;;;;;4972092;28;20038;-53
2022/04/28 09:29:39;;;;;;;7.68;2.13;;;11.80;93.30;;;;;;4954261;28;20055;-53
2022/04/28 09:32:15;;;;;;;5.78;2.10;;;11.90;92.50;;;;;;4971910;28;20527;-52
2022/04/28 09:34:49;;;;;;;6.38;2.03;;;11.90;91.80;;;;;;4971930;28;20449;-52
2022/04/28 09:37:19;;;;;;;8.23;1.77;;;12.10;91.80;;;;;;4971962;28;20122;-53
2022/04/28 09:42:39;;;;;;;5.15;1.42;;;12.30;89.60;;;;;;4972153;28;20053;-52
2022/04/28 09:45:06;;;;;;;3.92;1.30;;;12.50;89.00;;;;;;4954266;28;20121;-52
2022/04/28 09:47:34;;;;;;;7.15;1.75;;;12.60;87.20;;;;;;4971582;28;20519;-54
2022/04/28 09:50:00;;;;;;;7.47;1.75;;;12.70;84.70;;;;;;4972048;28;20038;-53
2022/04/28 09:52:25;;;;;;;7.50;1.50;;;12.80;82.80;;;;;;4954491;28;20051;-53
2022/04/28 09:54:52;;;;;;;4.40;1.52;;;12.90;82.20;;;;;;4971648;28;20051;-52
2022/04/28 09:57:20;;;;;;;4.50;1.58;;;13.00;81.00;;;;;;4971912;28;20068;-50
2022/04/28 09:59:47;;;;;;;4.07;1.42;;;13.10;79.80;;;;;;4971389;28;20043;-51
2022/04/28 10:02:17;;;;;;;6.70;1.63;;;13.10;77.90;;;;;;4971998;28;20039;-52
2022/04/28 10:04:43;;;;;;;4.25;1.45;;;13.20;77.70;;;;;;4971345;28;20056;-53
2022/04/28 10:07:09;;;;;;;4.60;1.48;;;13.40;77.30;;;;;;4971843;28;20051;-49
2022/04/28 10:09:39;;;;;;;4.88;1.67;;;13.40;76.40;;;;;;4954329;28;20496;-53
2022/04/28 10:12:06;;;;;;;6.93;1.85;;;13.50;75.90;;;;;;4971869;28;20069;-52
2022/04/28 10:14:35;;;;;;;4.00;1.30;;;13.50;76.00;;;;;;4971094;28;20074;-53
2022/04/28 10:17:02;;;;;;;3.28;1.70;;;13.60;74.50;;;;;;4971676;28;20114;-53
2022/04/28 10:19:34;;;;;;;5.55;1.60;;;13.60;74.90;;;;;;4886873;28;20055;-53
2022/04/28 10:22:08;;;;;;;7.75;2.03;;;13.60;73.80;;;;;;4960915;28;20082;-50
2022/04/28 10:32:59;;;;;;;5.85;1.60;;;14.60;66.30;;;;;;4975692;28;20109;-53
2022/04/28 10:35:35;;;;;;;3.67;1.33;;;14.60;66.00;;;;;;4975294;28;20464;-51
2022/04/28 10:38:16;;;;;;;5.90;1.95;;;14.80;68.90;;;;;;4975286;28;20046;-52
2022/04/28 10:40:56;;;;;;;5.30;1.40;;;15.20;66.00;;;;;;4975014;28;20121;-50
2022/04/28 10:43:26;;;;;;;4.47;1.52;;;15.40;62.60;;;;;;4957936;28;20460;-51
2022/04/28 10:45:53;;;;;;;4.32;1.60;;;15.50;61.20;;;;;;4957200;28;20070;-52
2022/04/28 10:48:43;;;;;;;5.22;1.73;;;15.50;60.30;;;;;;4974841;28;20058;-51
2022/04/28 10:51:11;;;;;;;5.50;1.83;;;15.60;59.10;;;;;;4974713;28;20050;-49
2022/04/28 10:53:58;;;;;;;8.20;1.95;;;15.90;59.80;;;;;;4975149;28;20520;-52
2022/04/28 10:56:28;;;;;;;7.47;1.92;;;15.90;56.30;;;;;;4975060;28;20410;-49
2022/04/28 10:58:59;;;;;;;6.13;1.60;;;15.90;58.30;;;;;;4974844;28;20118;-50
2022/04/28 11:01:31;;;;;;;6.00;1.55;;;15.60;59.00;;;;;;4956747;28;20492;-51
2022/04/28 11:04:01;;;;;;;;;;;15.50;60.10;;;;;;4958375;28;20042;-51
2022/04/28 11:06:32;;;;;;;10.07;1.50;;;15.40;57.80;;;;;;4974635;28;20466;-52
2022/04/28 11:09:00;;;;;;;9.43;1.80;;;15.30;60.90;;;;;;4974669;28;20039;-49
2022/04/28 11:11:29;;;;;;;5.28;1.90;;;15.10;61.40;;;;;;4974638;28;20053;-52
2022/04/28 11:13:57;;;;;;;11.60;1.65;;;15.10;61.40;;;;;;4957250;28;20046;-51
2022/04/28 11:16:25;;;;;;;3.83;1.65;;;15.20;62.10;;;;;;4974338;28;20039;-51
2022/04/28 11:18:52;;;;;;;5.88;1.35;;;15.40;62.00;;;;;;4974298;28;20039;-48
2022/04/28 11:21:18;;;;;;;8.85;1.80;;;15.40;59.40;;;;;;4957012;28;20054;-49
2022/04/28 11:23:47;;;;;;;6.18;1.58;;;15.40;58.90;;;;;;4974443;28;20046;-52
2022/04/28 11:26:13;;;;;;;8.52;2.03;;;15.50;58.10;;;;;;4974360;28;20514;-52
2022/04/28 11:28:41;;;;;;;3.08;1.50;;;15.90;58.90;;;;;;4957127;28;20482;-52
2022/04/28 11:31:09;;;;;;;4.72;1.20;;;16.20;57.90;;;;;;4956278;28;20154;-51
2022/04/28 11:33:41;;;;;;;4.05;1.30;;;16.60;55.60;;;;;;4974233;28;20484;-52
2022/04/28 11:36:18;;;;;;;4.57;1.20;;;17.00;54.00;;;;;;4956861;28;20046;-52
2022/04/28 11:38:52;;;;;;;6.18;1.63;;;17.20;52.00;;;;;;4973814;28;20126;-50
2022/04/28 11:41:31;;;;;;;4.55;1.45;;;17.30;53.00;;;;;;4973368;28;20039;-52
2022/04/28 11:44:02;;;;;;;5.82;1.10;;;17.50;52.50;;;;;;4974053;28;20068;-52
2022/04/28 11:46:27;;;;;;;3.70;1.20;;;17.80;51.20;;;;;;4973999;28;20498;-52
2022/04/28 11:48:53;;;;;;;5.55;1.48;;;17.90;51.40;;;;;;4974158;28;20074;-52
2022/04/28 11:51:27;;;;;;;4.03;1.38;;;18.00;50.30;;;;;;4974024;28;20038;-51
2022/04/28 11:53:53;;;;;;;5.70;1.63;;;18.10;50.10;;;;;;4974233;28;20043;-52
2022/04/28 11:56:28;;;;;;;4.97;1.20;;;18.10;50.10;;;;;;4956385;28;20045;-51
2022/04/28 11:58:55;;;;;;;4.80;1.10;;;18.10;49.90;;;;;;4974038;28;20074;-51
2022/04/28 12:01:21;;;;;;;5.28;1.40;;;17.90;50.30;;;;;;4973704;28;20057;-52
2022/04/28 12:03:49;;;;;;;5.00;1.38;;;17.60;49.90;;;;;;4956445;28;20452;-53
2022/04/28 12:06:17;;;;;;;11.75;1.80;;;17.50;50.50;;;;;;4973627;28;20046;-52
2022/04/28 12:08:51;;;;;;;6.40;1.35;;;17.40;50.90;;;;;;4973961;28;20064;-52
2022/04/28 12:19:49;;;;;;;5.20;1.42;;;17.00;51.40;;;;;;4973336;28;20137;-52
2022/04/28 12:22:29;;;;;;;11.52;1.60;;;17.40;50.90;;;;;;4973354;28;20506;-52
2022/04/28 12:25:00;;;;;;;3.60;1.38;;;17.50;49.90;;;;;;4973374;28;20047;-50
2022/04/28 12:27:35;;;;;;;4.20;1.40;;;17.50;50.30;;;;;;4973443;28;20031;-51
2022/04/28 12:30:08;;;;;;;5.80;1.60;;;17.40;50.60;;;;;;4972819;28;20066;-52
2022/04/28 12:32:42;;;;;;;4.40;1.40;;;17.50;50.50;;;;;;4973356;28;20039;-53
2022/04/28 12:35:07;;;;;;;8.10;1.83;;;17.50;49.90;;;;;;4972904;28;20042;-52
2022/04/28 12:37:40;;;;;;;6.38;1.65;;;17.60;50.50;;;;;;4973339;28;20492;-53
2022/04/28 12:40:07;;;;;;;4.88;1.98;;;17.50;50.10;;;;;;4955314;28;20047;-52
2022/04/28 12:42:49;;;;;;;4.72;1.60;;;17.30;50.10;;;;;;4955822;28;20058;-52
2022/04/28 12:45:16;;;;;;;6.18;1.83;;;17.30;49.90;;;;;;4955289;28;20039;-50
2022/04/28 12:47:43;;;;;;;6.45;1.73;;;17.40;51.10;;;;;;4973255;28;20054;-52
2022/04/28 12:50:24;;;;;;;6.13;1.85;;;17.60;51.20;;;;;;4955827;28;20549;-53
2022/04/28 12:52:50;;;;;;;5.80;1.60;;;17.70;49.90;;;;;;4972989;28;20046;-51
2022/04/28 12:55:18;;;;;;;5.30;1.90;;;17.70;50.30;;;;;;4972604;28;20042;-52
2022/04/28 12:57:45;;;;;;;8.70;2.40;;;17.80;50.10;;;;;;4973139;28;20102;-52
2022/04/28 13:00:11;;;;;;;6.47;1.70;;;17.70;49.70;;;;;;4972550;28;20070;-52
2022/04/28 13:02:38;;;;;;;9.90;1.98;;;17.80;50.40;;;;;;4972705;28;20113;-52
2022/04/28 13:05:14;;;;;;;7.20;2.45;;;18.10;50.50;;;;;;4972693;28;20043;-52
2022/04/28 13:07:41;;;;;;;8.35;2.20;;;18.30;49.50;;;;;;4955521;28;20046;-50
2022/04/28 13:10:08;;;;;;;7.60;2.08;;;18.40;49.90;;;;;;4972305;28;20043;-56
2022/04/28 13:12:34;;;;;;;6.07;1.70;;;18.50;49.00;;;;;;4972511;28;20094;-51
2022/04/28 13:15:01;;;;;;;7.57;2.00;;;18.30;48.30;;;;;;4972343;28;20144;-51
2022/04/28 13:17:28;;;;;;;4.85;1.95;;;18.20;47.80;;;;;;4972331;28;20058;-53
2022/04/28 13:19:53;;;;;;;6.38;2.22;;;18.00;48.20;;;;;;4972120;28;20039;-51
2022/04/28 13:22:19;;;;;;;5.22;2.28;;;18.10;48.40;;;;;;4972299;28;20224;-51
2022/04/28 13:24:45;;;;;;;8.73;1.88;;;18.50;47.70;;;;;;4972136;28;20145;-52
2022/04/28 13:27:11;;;;;;;6.45;2.33;;;18.70;47.10;;;;;;4972261;28;20047;-49
2022/04/28 13:29:37;;;;;;;8.63;2.40;;;19.00;46.80;;;;;;4954314;28;20094;-51
2022/04/28 13:32:04;;;;;;;5.93;1.80;;;19.10;46.20;;;;;;4939081;28;20468;-52
2022/04/28 13:34:30;;;;;;;10.85;2.38;;;19.10;46.00;;;;;;4972198;28;20105;-49